Check out our new BloomSky Weather System.

Active alerts


No alerts


Thunder radar  blitzortung!


Rain radar more information rain snow radar


Visit our other weather sites:

Template documentation
and downloads

And another site



Weather Underground History page Text

Daily Summary for January 2, 2018 Units:  Both    English   Metric
« Previous Day
Next Day »
Daily Weekly Monthly Yearly Custom
  High: Low: Average:
Temperature: TemperatureF °F /  -17.8 °C 28.6 °F /  -1.9 °C 31.1 °F /  -0.5 °C
Dew Point: DewpointF °F /  -17.8 °C 13.8 °F /  -10.1 °C 16.7 °F /  -8.5 °C
Humidity: Humidity % 50 % 55 %
Wind Speed: WindSpeedMPH mph /  0 km/h - 1.9 mph /  3.1 km/h
Wind Gust: WindSpeedGustMPH mph /  0 km/h - -
Wind:- - SW
Pressure: PressureIn in /  0 hPa 30.44 in /  1030.7 hPa -
Precipitation: 0.00 in /  0 mm    
Historical Graphs
 
 
Tabular Data for January 2, 2018
Time Temperature Dew Point Pressure Wind Wind Speed Wind Gust Humidity Rainfall Rate (Hourly)
TemperatureF °F /  -17.8 °C DewpointF °F /  -17.8 °C PressureIn in /  0 hPa Calm     Humidity % HourlyPrecipIn in /  0 mm
00:03 30.4 °F /  -0.9 °C 14.4 °F /  -9.8 °C 30.63 in /  1037.1 hPa North 2.0 mph /  3.2 km/h 6.0 mph /  9.7 km/h 51 % 0.00 in /  0 mm
00:04 30.4 °F /  -0.9 °C 14.4 °F /  -9.8 °C 30.63 in /  1037.1 hPa East 4.0 mph /  6.4 km/h 6.0 mph /  9.7 km/h 51 % 0.00 in /  0 mm
00:09 30.4 °F /  -0.9 °C 14.4 °F /  -9.8 °C 30.63 in /  1037.1 hPa NW 2.0 mph /  3.2 km/h 7.0 mph /  11.3 km/h 51 % 0.00 in /  0 mm
00:10 30.4 °F /  -0.9 °C 14.9 °F /  -9.5 °C 30.63 in /  1037.1 hPa Calm   7.0 mph /  11.3 km/h 52 % 0.00 in /  0 mm
00:12 30.4 °F /  -0.9 °C 14.9 °F /  -9.5 °C 30.63 in /  1037.1 hPa Calm   7.0 mph /  11.3 km/h 52 % 0.00 in /  0 mm
00:15 30.4 °F /  -0.9 °C 14.4 °F /  -9.8 °C 30.63 in /  1037.1 hPa Calm   7.0 mph /  11.3 km/h 51 % 0.00 in /  0 mm
00:18 30.4 °F /  -0.9 °C 14.4 °F /  -9.8 °C 30.62 in /  1036.8 hPa Calm   7.0 mph /  11.3 km/h 51 % 0.00 in /  0 mm
00:21 30.4 °F /  -0.9 °C 14.9 °F /  -9.5 °C 30.62 in /  1036.8 hPa NNW 1.0 mph /  1.6 km/h 7.0 mph /  11.3 km/h 52 % 0.00 in /  0 mm
00:26 30.4 °F /  -0.9 °C 14.4 °F /  -9.8 °C 30.62 in /  1036.8 hPa NNW 2.0 mph /  3.2 km/h 6.0 mph /  9.7 km/h 51 % 0.00 in /  0 mm
00:28 30.4 °F /  -0.9 °C 14.4 °F /  -9.8 °C 30.62 in /  1036.8 hPa NNE 3.0 mph /  4.8 km/h 6.0 mph /  9.7 km/h 51 % 0.00 in /  0 mm
00:33 30.2 °F /  -1 °C 14.2 °F /  -9.9 °C 30.63 in /  1037.1 hPa East 1.0 mph /  1.6 km/h 8.0 mph /  12.9 km/h 51 % 0.00 in /  0 mm
00:34 30.2 °F /  -1 °C 14.2 °F /  -9.9 °C 30.62 in /  1036.8 hPa Calm   8.0 mph /  12.9 km/h 51 % 0.00 in /  0 mm
00:35 30.4 °F /  -0.9 °C 14.4 °F /  -9.8 °C 30.62 in /  1036.8 hPa North 2.0 mph /  3.2 km/h 8.0 mph /  12.9 km/h 51 % 0.00 in /  0 mm
00:39 30.2 °F /  -1 °C 14.2 °F /  -9.9 °C 30.62 in /  1036.8 hPa East 1.0 mph /  1.6 km/h 8.0 mph /  12.9 km/h 51 % 0.00 in /  0 mm
00:41 30.2 °F /  -1 °C 14.2 °F /  -9.9 °C 30.62 in /  1036.8 hPa North 2.0 mph /  3.2 km/h 8.0 mph /  12.9 km/h 51 % 0.00 in /  0 mm
00:44 30.2 °F /  -1 °C 14.2 °F /  -9.9 °C 30.62 in /  1036.8 hPa Calm   8.0 mph /  12.9 km/h 51 % 0.00 in /  0 mm
00:49 30.2 °F /  -1 °C 14.2 °F /  -9.9 °C 30.62 in /  1036.8 hPa ENE 2.0 mph /  3.2 km/h 6.0 mph /  9.7 km/h 51 % 0.00 in /  0 mm
00:50 30.2 °F /  -1 °C 14.2 °F /  -9.9 °C 30.62 in /  1036.8 hPa ENE 2.0 mph /  3.2 km/h 6.0 mph /  9.7 km/h 51 % 0.00 in /  0 mm
00:55 30.2 °F /  -1 °C 14.2 °F /  -9.9 °C 30.62 in /  1036.8 hPa Calm   6.0 mph /  9.7 km/h 51 % 0.00 in /  0 mm
00:56 30.2 °F /  -1 °C 14.2 °F /  -9.9 °C 30.62 in /  1036.8 hPa NW 1.0 mph /  1.6 km/h 6.0 mph /  9.7 km/h 51 % 0.00 in /  0 mm
01:01 30.2 °F /  -1 °C 13.8 °F /  -10.1 °C 30.62 in /  1036.8 hPa WSW 1.0 mph /  1.6 km/h 6.0 mph /  9.7 km/h 50 % 0.00 in /  0 mm
01:03 30.2 °F /  -1 °C 13.8 °F /  -10.1 °C 30.62 in /  1036.8 hPa NE 1.0 mph /  1.6 km/h 6.0 mph /  9.7 km/h 50 % 0.00 in /  0 mm
01:08 30.0 °F /  -1.1 °C 14.0 °F /  -10 °C 30.62 in /  1036.8 hPa North 2.0 mph /  3.2 km/h 6.0 mph /  9.7 km/h 51 % 0.00 in /  0 mm
01:09 30.0 °F /  -1.1 °C 14.0 °F /  -10 °C 30.61 in /  1036.5 hPa Calm   6.0 mph /  9.7 km/h 51 % 0.00 in /  0 mm
01:12 30.2 °F /  -1 °C 14.2 °F /  -9.9 °C 30.61 in /  1036.5 hPa North 4.0 mph /  6.4 km/h 6.0 mph /  9.7 km/h 51 % 0.00 in /  0 mm
01:15 30.2 °F /  -1 °C 14.2 °F /  -9.9 °C 30.61 in /  1036.5 hPa NE 1.0 mph /  1.6 km/h 6.0 mph /  9.7 km/h 51 % 0.00 in /  0 mm
01:20 30.2 °F /  -1 °C 14.2 °F /  -9.9 °C 30.62 in /  1036.8 hPa Calm   7.0 mph /  11.3 km/h 51 % 0.00 in /  0 mm
01:21 30.2 °F /  -1 °C 14.2 °F /  -9.9 °C 30.61 in /  1036.5 hPa ENE 1.0 mph /  1.6 km/h 7.0 mph /  11.3 km/h 51 % 0.00 in /  0 mm
01:25 30.0 °F /  -1.1 °C 14.0 °F /  -10 °C 30.62 in /  1036.8 hPa East 3.0 mph /  4.8 km/h 7.0 mph /  11.3 km/h 51 % 0.00 in /  0 mm
01:27 30.0 °F /  -1.1 °C 14.0 °F /  -10 °C 30.61 in /  1036.5 hPa Calm   7.0 mph /  11.3 km/h 51 % 0.00 in /  0 mm
01:32 30.0 °F /  -1.1 °C 14.0 °F /  -10 °C 30.61 in /  1036.5 hPa NNE 3.0 mph /  4.8 km/h 7.0 mph /  11.3 km/h 51 % 0.00 in /  0 mm
01:33 30.0 °F /  -1.1 °C 14.0 °F /  -10 °C 30.61 in /  1036.5 hPa East 2.0 mph /  3.2 km/h 7.0 mph /  11.3 km/h 51 % 0.00 in /  0 mm
01:36 30.0 °F /  -1.1 °C 14.0 °F /  -10 °C 30.61 in /  1036.5 hPa ENE 2.0 mph /  3.2 km/h 6.0 mph /  9.7 km/h 51 % 0.00 in /  0 mm
01:41 30.0 °F /  -1.1 °C 14.0 °F /  -10 °C 30.61 in /  1036.5 hPa NNE 2.0 mph /  3.2 km/h 7.0 mph /  11.3 km/h 51 % 0.00 in /  0 mm
01:45 30.0 °F /  -1.1 °C 14.5 °F /  -9.7 °C 30.60 in /  1036.1 hPa NNW 1.0 mph /  1.6 km/h 7.0 mph /  11.3 km/h 52 % 0.00 in /  0 mm
01:52 30.0 °F /  -1.1 °C 14.0 °F /  -10 °C 30.61 in /  1036.5 hPa Calm   7.0 mph /  11.3 km/h 51 % 0.00 in /  0 mm
01:57 30.0 °F /  -1.1 °C 14.0 °F /  -10 °C 30.61 in /  1036.5 hPa East 1.0 mph /  1.6 km/h 7.0 mph /  11.3 km/h 51 % 0.00 in /  0 mm
01:59 30.0 °F /  -1.1 °C 14.5 °F /  -9.7 °C 30.61 in /  1036.5 hPa Calm   7.0 mph /  11.3 km/h 52 % 0.00 in /  0 mm
02:05 30.0 °F /  -1.1 °C 14.5 °F /  -9.7 °C 30.60 in /  1036.1 hPa North 4.0 mph /  6.4 km/h 7.0 mph /  11.3 km/h 52 % 0.00 in /  0 mm
02:10 29.8 °F /  -1.2 °C 14.4 °F /  -9.8 °C 30.60 in /  1036.1 hPa ENE 1.0 mph /  1.6 km/h 6.0 mph /  9.7 km/h 52 % 0.00 in /  0 mm
02:11 30.0 °F /  -1.1 °C 14.5 °F /  -9.7 °C 30.60 in /  1036.1 hPa NNW 1.0 mph /  1.6 km/h 6.0 mph /  9.7 km/h 52 % 0.00 in /  0 mm
02:13 29.8 °F /  -1.2 °C 14.0 °F /  -10 °C 30.60 in /  1036.1 hPa NNE 1.0 mph /  1.6 km/h 6.0 mph /  9.7 km/h 51 % 0.00 in /  0 mm
02:17 29.8 °F /  -1.2 °C 14.0 °F /  -10 °C 30.60 in /  1036.1 hPa NW 1.0 mph /  1.6 km/h 6.0 mph /  9.7 km/h 51 % 0.00 in /  0 mm
02:19 29.8 °F /  -1.2 °C 14.4 °F /  -9.8 °C 30.60 in /  1036.1 hPa Calm   6.0 mph /  9.7 km/h 52 % 0.00 in /  0 mm
02:24 29.8 °F /  -1.2 °C 14.4 °F /  -9.8 °C 30.60 in /  1036.1 hPa NE 1.0 mph /  1.6 km/h 6.0 mph /  9.7 km/h 52 % 0.00 in /  0 mm
02:28 29.8 °F /  -1.2 °C 14.7 °F /  -9.6 °C 30.60 in /  1036.1 hPa Calm   8.0 mph /  12.9 km/h 53 % 0.00 in /  0 mm
02:31 29.8 °F /  -1.2 °C 14.7 °F /  -9.6 °C 30.61 in /  1036.5 hPa NNW 1.0 mph /  1.6 km/h 8.0 mph /  12.9 km/h 53 % 0.00 in /  0 mm
02:36 29.8 °F /  -1.2 °C 14.4 °F /  -9.8 °C 30.60 in /  1036.1 hPa NW 3.0 mph /  4.8 km/h 8.0 mph /  12.9 km/h 52 % 0.00 in /  0 mm
02:38 29.8 °F /  -1.2 °C 14.4 °F /  -9.8 °C 30.60 in /  1036.1 hPa NNW 1.0 mph /  1.6 km/h 8.0 mph /  12.9 km/h 52 % 0.00 in /  0 mm
02:43 29.8 °F /  -1.2 °C 14.4 °F /  -9.8 °C 30.60 in /  1036.1 hPa Calm   7.0 mph /  11.3 km/h 52 % 0.00 in /  0 mm
02:44 29.8 °F /  -1.2 °C 14.4 °F /  -9.8 °C 30.60 in /  1036.1 hPa WSW 2.0 mph /  3.2 km/h 7.0 mph /  11.3 km/h 52 % 0.00 in /  0 mm
02:49 29.8 °F /  -1.2 °C 14.7 °F /  -9.6 °C 30.60 in /  1036.1 hPa NNW 6.0 mph /  9.7 km/h 7.0 mph /  11.3 km/h 53 % 0.00 in /  0 mm
02:54 29.8 °F /  -1.2 °C 14.7 °F /  -9.6 °C 30.60 in /  1036.1 hPa North 1.0 mph /  1.6 km/h 7.0 mph /  11.3 km/h 53 % 0.00 in /  0 mm
02:59 29.8 °F /  -1.2 °C 14.7 °F /  -9.6 °C 30.60 in /  1036.1 hPa NE 2.0 mph /  3.2 km/h 7.0 mph /  11.3 km/h 53 % 0.00 in /  0 mm
03:01 29.8 °F /  -1.2 °C 14.7 °F /  -9.6 °C 30.60 in /  1036.1 hPa East 5.0 mph /  8 km/h 7.0 mph /  11.3 km/h 53 % 0.00 in /  0 mm
03:06 29.8 °F /  -1.2 °C 14.7 °F /  -9.6 °C 30.60 in /  1036.1 hPa NNW 1.0 mph /  1.6 km/h 9.0 mph /  14.5 km/h 53 % 0.00 in /  0 mm
03:12 29.7 °F /  -1.3 °C 14.5 °F /  -9.7 °C 30.60 in /  1036.1 hPa Calm   9.0 mph /  14.5 km/h 53 % 0.00 in /  0 mm
03:14 29.7 °F /  -1.3 °C 14.5 °F /  -9.7 °C 30.60 in /  1036.1 hPa East 2.0 mph /  3.2 km/h 9.0 mph /  14.5 km/h 53 % 0.00 in /  0 mm
03:19 29.8 °F /  -1.2 °C 14.7 °F /  -9.6 °C 30.60 in /  1036.1 hPa NNE 1.0 mph /  1.6 km/h 9.0 mph /  14.5 km/h 53 % 0.00 in /  0 mm
03:22 29.7 °F /  -1.3 °C 14.2 °F /  -9.9 °C 30.60 in /  1036.1 hPa NW 4.0 mph /  6.4 km/h 7.0 mph /  11.3 km/h 52 % 0.00 in /  0 mm
03:27 29.7 °F /  -1.3 °C 14.5 °F /  -9.7 °C 30.60 in /  1036.1 hPa Calm   7.0 mph /  11.3 km/h 53 % 0.00 in /  0 mm
03:29 29.7 °F /  -1.3 °C 14.5 °F /  -9.7 °C 30.60 in /  1036.1 hPa NNE 4.0 mph /  6.4 km/h 7.0 mph /  11.3 km/h 53 % 0.00 in /  0 mm
03:34 29.7 °F /  -1.3 °C 14.2 °F /  -9.9 °C 30.60 in /  1036.1 hPa North 5.0 mph /  8 km/h 7.0 mph /  11.3 km/h 52 % 0.00 in /  0 mm
03:35 29.7 °F /  -1.3 °C 14.2 °F /  -9.9 °C 30.60 in /  1036.1 hPa NNE 1.0 mph /  1.6 km/h 7.0 mph /  11.3 km/h 52 % 0.00 in /  0 mm
03:40 29.7 °F /  -1.3 °C 14.5 °F /  -9.7 °C 30.60 in /  1036.1 hPa Calm   7.0 mph /  11.3 km/h 53 % 0.00 in /  0 mm
03:43 29.7 °F /  -1.3 °C 14.5 °F /  -9.7 °C 30.60 in /  1036.1 hPa ENE 3.0 mph /  4.8 km/h 7.0 mph /  11.3 km/h 53 % 0.00 in /  0 mm
03:46 29.7 °F /  -1.3 °C 14.5 °F /  -9.7 °C 30.60 in /  1036.1 hPa NNE 1.0 mph /  1.6 km/h 7.0 mph /  11.3 km/h 53 % 0.00 in /  0 mm
03:50 29.7 °F /  -1.3 °C 14.5 °F /  -9.7 °C 30.60 in /  1036.1 hPa North 4.0 mph /  6.4 km/h 7.0 mph /  11.3 km/h 53 % 0.00 in /  0 mm
04:02 29.5 °F /  -1.4 °C 14.0 °F /  -10 °C 30.60 in /  1036.1 hPa NW 1.0 mph /  1.6 km/h 7.0 mph /  11.3 km/h 52 % 0.00 in /  0 mm
04:07 29.5 °F /  -1.4 °C 14.0 °F /  -10 °C 30.59 in /  1035.8 hPa NNE 1.0 mph /  1.6 km/h 5.0 mph /  8 km/h 52 % 0.00 in /  0 mm
04:14 29.5 °F /  -1.4 °C 14.5 °F /  -9.7 °C 30.59 in /  1035.8 hPa NNW 1.0 mph /  1.6 km/h 5.0 mph /  8 km/h 53 % 0.00 in /  0 mm
04:15 29.5 °F /  -1.4 °C 14.5 °F /  -9.7 °C 30.59 in /  1035.8 hPa North 2.0 mph /  3.2 km/h 5.0 mph /  8 km/h 53 % 0.00 in /  0 mm
04:20 29.5 °F /  -1.4 °C 14.5 °F /  -9.7 °C 30.59 in /  1035.8 hPa Calm   5.0 mph /  8 km/h 53 % 0.00 in /  0 mm
04:22 29.5 °F /  -1.4 °C 14.5 °F /  -9.7 °C 30.59 in /  1035.8 hPa NW 1.0 mph /  1.6 km/h 5.0 mph /  8 km/h 53 % 0.00 in /  0 mm
04:27 29.5 °F /  -1.4 °C 14.5 °F /  -9.7 °C 30.58 in /  1035.4 hPa Calm   5.0 mph /  8 km/h 53 % 0.00 in /  0 mm
04:28 29.5 °F /  -1.4 °C 14.9 °F /  -9.5 °C 30.58 in /  1035.4 hPa North 2.0 mph /  3.2 km/h 5.0 mph /  8 km/h 54 % 0.00 in /  0 mm
04:33 29.5 °F /  -1.4 °C 14.5 °F /  -9.7 °C 30.58 in /  1035.4 hPa North 1.0 mph /  1.6 km/h 5.0 mph /  8 km/h 53 % 0.00 in /  0 mm
04:38 29.5 °F /  -1.4 °C 14.5 °F /  -9.7 °C 30.58 in /  1035.4 hPa NE 1.0 mph /  1.6 km/h 7.0 mph /  11.3 km/h 53 % 0.00 in /  0 mm
04:53 29.3 °F /  -1.5 °C 14.7 °F /  -9.6 °C 30.59 in /  1035.8 hPa NW 3.0 mph /  4.8 km/h 6.0 mph /  9.7 km/h 54 % 0.00 in /  0 mm
04:58 29.3 °F /  -1.5 °C 14.7 °F /  -9.6 °C 30.59 in /  1035.8 hPa NNW 5.0 mph /  8 km/h 6.0 mph /  9.7 km/h 54 % 0.00 in /  0 mm
05:06 29.3 °F /  -1.5 °C 14.7 °F /  -9.6 °C 30.59 in /  1035.8 hPa NNW 4.0 mph /  6.4 km/h 6.0 mph /  9.7 km/h 54 % 0.00 in /  0 mm
05:07 29.1 °F /  -1.6 °C 14.2 °F /  -9.9 °C 30.59 in /  1035.8 hPa NNW 1.0 mph /  1.6 km/h 6.0 mph /  9.7 km/h 53 % 0.00 in /  0 mm
05:11 29.1 °F /  -1.6 °C 14.5 °F /  -9.7 °C 30.59 in /  1035.8 hPa North 1.0 mph /  1.6 km/h 6.0 mph /  9.7 km/h 54 % 0.00 in /  0 mm
05:20 29.1 °F /  -1.6 °C 14.5 °F /  -9.7 °C 30.59 in /  1035.8 hPa NNW 1.0 mph /  1.6 km/h 7.0 mph /  11.3 km/h 54 % 0.00 in /  0 mm
05:25 29.1 °F /  -1.6 °C 14.5 °F /  -9.7 °C 30.59 in /  1035.8 hPa NNW 3.0 mph /  4.8 km/h 7.0 mph /  11.3 km/h 54 % 0.00 in /  0 mm
05:26 29.1 °F /  -1.6 °C 14.2 °F /  -9.9 °C 30.59 in /  1035.8 hPa ENE 1.0 mph /  1.6 km/h 7.0 mph /  11.3 km/h 53 % 0.00 in /  0 mm
05:31 29.1 °F /  -1.6 °C 14.5 °F /  -9.7 °C 30.59 in /  1035.8 hPa North 1.0 mph /  1.6 km/h 7.0 mph /  11.3 km/h 54 % 0.00 in /  0 mm
05:39 29.1 °F /  -1.6 °C 14.5 °F /  -9.7 °C 30.58 in /  1035.4 hPa ENE 1.0 mph /  1.6 km/h 6.0 mph /  9.7 km/h 54 % 0.00 in /  0 mm
05:44 29.1 °F /  -1.6 °C 14.5 °F /  -9.7 °C 30.58 in /  1035.4 hPa North 5.0 mph /  8 km/h 6.0 mph /  9.7 km/h 54 % 0.00 in /  0 mm
05:47 29.1 °F /  -1.6 °C 14.5 °F /  -9.7 °C 30.58 in /  1035.4 hPa Calm   5.0 mph /  8 km/h 54 % 0.00 in /  0 mm
05:52 29.1 °F /  -1.6 °C 14.9 °F /  -9.5 °C 30.58 in /  1035.4 hPa Calm   5.0 mph /  8 km/h 55 % 0.00 in /  0 mm
05:53 29.1 °F /  -1.6 °C 14.9 °F /  -9.5 °C 30.58 in /  1035.4 hPa North 1.0 mph /  1.6 km/h 5.0 mph /  8 km/h 55 % 0.00 in /  0 mm
05:56 29.1 °F /  -1.6 °C 14.9 °F /  -9.5 °C 30.59 in /  1035.8 hPa NNW 1.0 mph /  1.6 km/h 5.0 mph /  8 km/h 55 % 0.00 in /  0 mm
06:02 29.1 °F /  -1.6 °C 14.9 °F /  -9.5 °C 30.58 in /  1035.4 hPa NNW 1.0 mph /  1.6 km/h 7.0 mph /  11.3 km/h 55 % 0.00 in /  0 mm
06:12 28.9 °F /  -1.7 °C 14.4 °F /  -9.8 °C 30.58 in /  1035.4 hPa Calm   7.0 mph /  11.3 km/h 54 % 0.00 in /  0 mm
06:17 28.9 °F /  -1.7 °C 14.4 °F /  -9.8 °C 30.58 in /  1035.4 hPa Calm   7.0 mph /  11.3 km/h 54 % 0.00 in /  0 mm
06:18 28.9 °F /  -1.7 °C 14.7 °F /  -9.6 °C 30.58 in /  1035.4 hPa Calm   7.0 mph /  11.3 km/h 55 % 0.00 in /  0 mm
06:19 29.1 °F /  -1.6 °C 14.9 °F /  -9.5 °C 30.58 in /  1035.4 hPa Calm   7.0 mph /  11.3 km/h 55 % 0.00 in /  0 mm
06:24 29.1 °F /  -1.6 °C 14.5 °F /  -9.7 °C 30.58 in /  1035.4 hPa NE 1.0 mph /  1.6 km/h 7.0 mph /  11.3 km/h 54 % 0.00 in /  0 mm
06:25 29.1 °F /  -1.6 °C 14.5 °F /  -9.7 °C 30.58 in /  1035.4 hPa NNE 1.0 mph /  1.6 km/h 7.0 mph /  11.3 km/h 54 % 0.00 in /  0 mm
06:30 28.9 °F /  -1.7 °C 14.4 °F /  -9.8 °C 30.58 in /  1035.4 hPa NNW 3.0 mph /  4.8 km/h 6.0 mph /  9.7 km/h 54 % 0.00 in /  0 mm
06:35 28.9 °F /  -1.7 °C 14.7 °F /  -9.6 °C 30.58 in /  1035.4 hPa NW 1.0 mph /  1.6 km/h 6.0 mph /  9.7 km/h 55 % 0.00 in /  0 mm
06:37 28.9 °F /  -1.7 °C 14.7 °F /  -9.6 °C 30.58 in /  1035.4 hPa Calm   6.0 mph /  9.7 km/h 55 % 0.00 in /  0 mm
06:42 29.1 °F /  -1.6 °C 14.9 °F /  -9.5 °C 30.58 in /  1035.4 hPa NNW 1.0 mph /  1.6 km/h 4.0 mph /  6.4 km/h 55 % 0.00 in /  0 mm
06:48 29.1 °F /  -1.6 °C 14.9 °F /  -9.5 °C 30.59 in /  1035.8 hPa NNW 1.0 mph /  1.6 km/h 5.0 mph /  8 km/h 55 % 0.00 in /  0 mm
06:49 29.1 °F /  -1.6 °C 14.9 °F /  -9.5 °C 30.59 in /  1035.8 hPa Calm   5.0 mph /  8 km/h 55 % 0.00 in /  0 mm
06:54 29.1 °F /  -1.6 °C 14.9 °F /  -9.5 °C 30.60 in /  1036.1 hPa West 1.0 mph /  1.6 km/h 5.0 mph /  8 km/h 55 % 0.00 in /  0 mm
06:57 29.1 °F /  -1.6 °C 14.9 °F /  -9.5 °C 30.59 in /  1035.8 hPa North 1.0 mph /  1.6 km/h 5.0 mph /  8 km/h 55 % 0.00 in /  0 mm
07:02 29.1 °F /  -1.6 °C 14.9 °F /  -9.5 °C 30.60 in /  1036.1 hPa Calm   4.0 mph /  6.4 km/h 55 % 0.00 in /  0 mm
07:07 29.1 °F /  -1.6 °C 14.9 °F /  -9.5 °C 30.60 in /  1036.1 hPa Calm   4.0 mph /  6.4 km/h 55 % 0.00 in /  0 mm
07:08 29.1 °F /  -1.6 °C 14.9 °F /  -9.5 °C 30.60 in /  1036.1 hPa NW 2.0 mph /  3.2 km/h 4.0 mph /  6.4 km/h 55 % 0.00 in /  0 mm
07:13 29.1 °F /  -1.6 °C 15.4 °F /  -9.2 °C 30.60 in /  1036.1 hPa Calm   4.0 mph /  6.4 km/h 56 % 0.00 in /  0 mm
07:17 29.1 °F /  -1.6 °C 15.4 °F /  -9.2 °C 30.60 in /  1036.1 hPa Calm   3.0 mph /  4.8 km/h 56 % 0.00 in /  0 mm
07:19 29.1 °F /  -1.6 °C 15.4 °F /  -9.2 °C 30.60 in /  1036.1 hPa North 1.0 mph /  1.6 km/h 3.0 mph /  4.8 km/h 56 % 0.00 in /  0 mm
07:22 29.1 °F /  -1.6 °C 15.4 °F /  -9.2 °C 30.60 in /  1036.1 hPa Calm   3.0 mph /  4.8 km/h 56 % 0.00 in /  0 mm
07:27 29.1 °F /  -1.6 °C 15.4 °F /  -9.2 °C 30.60 in /  1036.1 hPa Calm   2.0 mph /  3.2 km/h 56 % 0.00 in /  0 mm
07:30 29.1 °F /  -1.6 °C 15.4 °F /  -9.2 °C 30.60 in /  1036.1 hPa Calm   3.0 mph /  4.8 km/h 56 % 0.00 in /  0 mm
07:33 29.1 °F /  -1.6 °C 15.4 °F /  -9.2 °C 30.60 in /  1036.1 hPa North 2.0 mph /  3.2 km/h 3.0 mph /  4.8 km/h 56 % 0.00 in /  0 mm
07:36 29.1 °F /  -1.6 °C 15.4 °F /  -9.2 °C 30.60 in /  1036.1 hPa Calm   3.0 mph /  4.8 km/h 56 % 0.00 in /  0 mm
07:38 29.1 °F /  -1.6 °C 15.4 °F /  -9.2 °C 30.60 in /  1036.1 hPa Calm   3.0 mph /  4.8 km/h 56 % 0.00 in /  0 mm
07:41 29.1 °F /  -1.6 °C 15.4 °F /  -9.2 °C 30.60 in /  1036.1 hPa Calm   3.0 mph /  4.8 km/h 56 % 0.00 in /  0 mm
07:48 29.1 °F /  -1.6 °C 15.4 °F /  -9.2 °C 30.60 in /  1036.1 hPa North 1.0 mph /  1.6 km/h 3.0 mph /  4.8 km/h 56 % 0.00 in /  0 mm
07:49 29.1 °F /  -1.6 °C 15.4 °F /  -9.2 °C 30.60 in /  1036.1 hPa NNE 2.0 mph /  3.2 km/h 3.0 mph /  4.8 km/h 56 % 0.00 in /  0 mm
07:54 29.1 °F /  -1.6 °C 14.9 °F /  -9.5 °C 30.60 in /  1036.1 hPa Calm   3.0 mph /  4.8 km/h 55 % 0.00 in /  0 mm
07:55 29.1 °F /  -1.6 °C 14.9 °F /  -9.5 °C 30.60 in /  1036.1 hPa Calm   4.0 mph /  6.4 km/h 55 % 0.00 in /  0 mm
08:02 29.1 °F /  -1.6 °C 15.4 °F /  -9.2 °C 30.60 in /  1036.1 hPa NNE 1.0 mph /  1.6 km/h 4.0 mph /  6.4 km/h 56 % 0.00 in /  0 mm
08:03 29.1 °F /  -1.6 °C 15.4 °F /  -9.2 °C 30.60 in /  1036.1 hPa Calm   4.0 mph /  6.4 km/h 56 % 0.00 in /  0 mm
08:08 29.1 °F /  -1.6 °C 15.4 °F /  -9.2 °C 30.60 in /  1036.1 hPa NW 1.0 mph /  1.6 km/h 4.0 mph /  6.4 km/h 56 % 0.00 in /  0 mm
08:13 29.1 °F /  -1.6 °C 14.9 °F /  -9.5 °C 30.61 in /  1036.5 hPa NW 2.0 mph /  3.2 km/h 5.0 mph /  8 km/h 55 % 0.00 in /  0 mm
08:14 29.1 °F /  -1.6 °C 14.9 °F /  -9.5 °C 30.61 in /  1036.5 hPa NNW 2.0 mph /  3.2 km/h 5.0 mph /  8 km/h 55 % 0.00 in /  0 mm
08:16 29.1 °F /  -1.6 °C 14.9 °F /  -9.5 °C 30.61 in /  1036.5 hPa NNW 1.0 mph /  1.6 km/h 6.0 mph /  9.7 km/h 55 % 0.00 in /  0 mm
08:23 29.1 °F /  -1.6 °C 14.9 °F /  -9.5 °C 30.61 in /  1036.5 hPa Calm   6.0 mph /  9.7 km/h 55 % 0.00 in /  0 mm
08:24 29.1 °F /  -1.6 °C 14.9 °F /  -9.5 °C 30.61 in /  1036.5 hPa Calm   6.0 mph /  9.7 km/h 55 % 0.00 in /  0 mm
08:30 29.1 °F /  -1.6 °C 14.9 °F /  -9.5 °C 30.61 in /  1036.5 hPa East 3.0 mph /  4.8 km/h 6.0 mph /  9.7 km/h 55 % 0.00 in /  0 mm
08:32 29.1 °F /  -1.6 °C 15.4 °F /  -9.2 °C 30.61 in /  1036.5 hPa Calm   5.0 mph /  8 km/h 56 % 0.00 in /  0 mm
08:37 29.1 °F /  -1.6 °C 14.9 °F /  -9.5 °C 30.61 in /  1036.5 hPa Calm   5.0 mph /  8 km/h 55 % 0.00 in /  0 mm
08:39 29.1 °F /  -1.6 °C 14.9 °F /  -9.5 °C 30.61 in /  1036.5 hPa NNW 3.0 mph /  4.8 km/h 5.0 mph /  8 km/h 55 % 0.00 in /  0 mm
08:45 29.1 °F /  -1.6 °C 15.4 °F /  -9.2 °C 30.61 in /  1036.5 hPa ENE 2.0 mph /  3.2 km/h 6.0 mph /  9.7 km/h 56 % 0.00 in /  0 mm
08:48 29.3 °F /  -1.5 °C 15.6 °F /  -9.1 °C 30.61 in /  1036.5 hPa North 1.0 mph /  1.6 km/h 6.0 mph /  9.7 km/h 56 % 0.00 in /  0 mm
08:49 29.3 °F /  -1.5 °C 15.6 °F /  -9.1 °C 30.61 in /  1036.5 hPa ENE 2.0 mph /  3.2 km/h 6.0 mph /  9.7 km/h 56 % 0.00 in /  0 mm
08:54 29.5 °F /  -1.4 °C 15.3 °F /  -9.3 °C 30.61 in /  1036.5 hPa Calm   6.0 mph /  9.7 km/h 55 % 0.00 in /  0 mm
08:57 29.5 °F /  -1.4 °C 15.8 °F /  -9 °C 30.61 in /  1036.5 hPa NNE 1.0 mph /  1.6 km/h 6.0 mph /  9.7 km/h 56 % 0.00 in /  0 mm
09:02 29.5 °F /  -1.4 °C 15.3 °F /  -9.3 °C 30.61 in /  1036.5 hPa ENE 4.0 mph /  6.4 km/h 6.0 mph /  9.7 km/h 55 % 0.00 in /  0 mm
09:08 29.7 °F /  -1.3 °C 15.4 °F /  -9.2 °C 30.61 in /  1036.5 hPa NNE 2.0 mph /  3.2 km/h 6.0 mph /  9.7 km/h 55 % 0.00 in /  0 mm
09:10 29.7 °F /  -1.3 °C 15.4 °F /  -9.2 °C 30.61 in /  1036.5 hPa Calm   5.0 mph /  8 km/h 55 % 0.00 in /  0 mm
09:17 29.7 °F /  -1.3 °C 15.4 °F /  -9.2 °C 30.61 in /  1036.5 hPa North 3.0 mph /  4.8 km/h 6.0 mph /  9.7 km/h 55 % 0.00 in /  0 mm
09:22 29.7 °F /  -1.3 °C 15.4 °F /  -9.2 °C 30.62 in /  1036.8 hPa Calm   6.0 mph /  9.7 km/h 55 % 0.00 in /  0 mm
09:27 29.7 °F /  -1.3 °C 15.4 °F /  -9.2 °C 30.61 in /  1036.5 hPa Calm   6.0 mph /  9.7 km/h 55 % 0.00 in /  0 mm
09:31 29.7 °F /  -1.3 °C 15.1 °F /  -9.4 °C 30.61 in /  1036.5 hPa East 3.0 mph /  4.8 km/h 6.0 mph /  9.7 km/h 54 % 0.00 in /  0 mm
09:33 29.7 °F /  -1.3 °C 15.1 °F /  -9.4 °C 30.61 in /  1036.5 hPa ENE 2.0 mph /  3.2 km/h 6.0 mph /  9.7 km/h 54 % 0.00 in /  0 mm
09:38 29.8 °F /  -1.2 °C 15.6 °F /  -9.1 °C 30.61 in /  1036.5 hPa NNW 1.0 mph /  1.6 km/h 6.0 mph /  9.7 km/h 55 % 0.00 in /  0 mm
09:39 29.8 °F /  -1.2 °C 15.6 °F /  -9.1 °C 30.61 in /  1036.5 hPa ENE 2.0 mph /  3.2 km/h 6.0 mph /  9.7 km/h 55 % 0.00 in /  0 mm
09:44 29.8 °F /  -1.2 °C 15.6 °F /  -9.1 °C 30.62 in /  1036.8 hPa Calm   6.0 mph /  9.7 km/h 55 % 0.00 in /  0 mm
09:47 30.0 °F /  -1.1 °C 15.8 °F /  -9 °C 30.62 in /  1036.8 hPa Calm   5.0 mph /  8 km/h 55 % 0.00 in /  0 mm
09:52 30.0 °F /  -1.1 °C 15.4 °F /  -9.2 °C 30.62 in /  1036.8 hPa Calm   5.0 mph /  8 km/h 54 % 0.00 in /  0 mm
09:57 30.0 °F /  -1.1 °C 15.8 °F /  -9 °C 30.62 in /  1036.8 hPa NNW 1.0 mph /  1.6 km/h 5.0 mph /  8 km/h 55 % 0.00 in /  0 mm
09:59 30.2 °F /  -1 °C 15.6 °F /  -9.1 °C 30.61 in /  1036.5 hPa East 4.0 mph /  6.4 km/h 5.0 mph /  8 km/h 54 % 0.00 in /  0 mm
10:04 30.0 °F /  -1.1 °C 15.4 °F /  -9.2 °C 30.62 in /  1036.8 hPa Calm   5.0 mph /  8 km/h 54 % 0.00 in /  0 mm
10:07 30.2 °F /  -1 °C 15.6 °F /  -9.1 °C 30.61 in /  1036.5 hPa ENE 3.0 mph /  4.8 km/h 5.0 mph /  8 km/h 54 % 0.00 in /  0 mm
10:08 30.2 °F /  -1 °C 15.1 °F /  -9.4 °C 30.61 in /  1036.5 hPa East 3.0 mph /  4.8 km/h 5.0 mph /  8 km/h 53 % 0.00 in /  0 mm
10:13 30.2 °F /  -1 °C 15.6 °F /  -9.1 °C 30.61 in /  1036.5 hPa North 2.0 mph /  3.2 km/h 5.0 mph /  8 km/h 54 % 0.00 in /  0 mm
10:15 30.2 °F /  -1 °C 15.6 °F /  -9.1 °C 30.61 in /  1036.5 hPa NNE 2.0 mph /  3.2 km/h 5.0 mph /  8 km/h 54 % 0.00 in /  0 mm
10:22 30.6 °F /  -0.8 °C 16.0 °F /  -8.9 °C 30.61 in /  1036.5 hPa SSE 2.0 mph /  3.2 km/h 5.0 mph /  8 km/h 54 % 0.00 in /  0 mm
10:25 30.6 °F /  -0.8 °C 16.0 °F /  -8.9 °C 30.61 in /  1036.5 hPa NE 2.0 mph /  3.2 km/h 4.0 mph /  6.4 km/h 54 % 0.00 in /  0 mm
10:30 30.6 °F /  -0.8 °C 16.0 °F /  -8.9 °C 30.61 in /  1036.5 hPa NW 2.0 mph /  3.2 km/h 4.0 mph /  6.4 km/h 54 % 0.00 in /  0 mm
10:35 30.7 °F /  -0.7 °C 16.0 °F /  -8.9 °C 30.60 in /  1036.1 hPa ENE 1.0 mph /  1.6 km/h 6.0 mph /  9.7 km/h 54 % 0.00 in /  0 mm
10:40 30.6 °F /  -0.8 °C 16.0 °F /  -8.9 °C 30.60 in /  1036.1 hPa ENE 3.0 mph /  4.8 km/h 6.0 mph /  9.7 km/h 54 % 0.00 in /  0 mm
10:42 30.6 °F /  -0.8 °C 16.0 °F /  -8.9 °C 30.60 in /  1036.1 hPa ENE 2.0 mph /  3.2 km/h 6.0 mph /  9.7 km/h 54 % 0.00 in /  0 mm
10:48 30.7 °F /  -0.7 °C 16.0 °F /  -8.9 °C 30.60 in /  1036.1 hPa NNE 1.0 mph /  1.6 km/h 7.0 mph /  11.3 km/h 54 % 0.00 in /  0 mm
10:53 30.9 °F /  -0.6 °C 16.2 °F /  -8.8 °C 30.60 in /  1036.1 hPa ENE 1.0 mph /  1.6 km/h 7.0 mph /  11.3 km/h 54 % 0.00 in /  0 mm
10:55 30.9 °F /  -0.6 °C 16.2 °F /  -8.8 °C 30.60 in /  1036.1 hPa Calm   7.0 mph /  11.3 km/h 54 % 0.00 in /  0 mm
11:00 31.3 °F /  -0.4 °C 16.2 °F /  -8.8 °C 30.60 in /  1036.1 hPa NNW 3.0 mph /  4.8 km/h 4.0 mph /  6.4 km/h 53 % 0.00 in /  0 mm
11:02 31.3 °F /  -0.4 °C 16.2 °F /  -8.8 °C 30.60 in /  1036.1 hPa ENE 2.0 mph /  3.2 km/h 4.0 mph /  6.4 km/h 53 % 0.00 in /  0 mm
11:07 31.3 °F /  -0.4 °C 16.2 °F /  -8.8 °C 30.59 in /  1035.8 hPa East 1.0 mph /  1.6 km/h 4.0 mph /  6.4 km/h 53 % 0.00 in /  0 mm
11:12 31.3 °F /  -0.4 °C 16.2 °F /  -8.8 °C 30.59 in /  1035.8 hPa NNW 1.0 mph /  1.6 km/h 5.0 mph /  8 km/h 53 % 0.00 in /  0 mm
11:17 31.3 °F /  -0.4 °C 15.6 °F /  -9.1 °C 30.58 in /  1035.4 hPa East 1.0 mph /  1.6 km/h 5.0 mph /  8 km/h 52 % 0.00 in /  0 mm
11:24 31.3 °F /  -0.4 °C 16.2 °F /  -8.8 °C 30.58 in /  1035.4 hPa ESE 1.0 mph /  1.6 km/h 6.0 mph /  9.7 km/h 53 % 0.00 in /  0 mm
11:26 31.3 °F /  -0.4 °C 15.6 °F /  -9.1 °C 30.58 in /  1035.4 hPa ENE 1.0 mph /  1.6 km/h 7.0 mph /  11.3 km/h 52 % 0.00 in /  0 mm
11:31 31.3 °F /  -0.4 °C 16.2 °F /  -8.8 °C 30.58 in /  1035.4 hPa East 1.0 mph /  1.6 km/h 8.0 mph /  12.9 km/h 53 % 0.00 in /  0 mm
11:34 31.5 °F /  -0.3 °C 16.3 °F /  -8.7 °C 30.57 in /  1035.1 hPa Calm   8.0 mph /  12.9 km/h 53 % 0.00 in /  0 mm
11:36 31.6 °F /  -0.2 °C 16.9 °F /  -8.4 °C 30.57 in /  1035.1 hPa Calm   8.0 mph /  12.9 km/h 54 % 0.00 in /  0 mm
11:40 31.8 °F /  -0.1 °C 16.7 °F /  -8.5 °C 30.57 in /  1035.1 hPa NNE 1.0 mph /  1.6 km/h 8.0 mph /  12.9 km/h 53 % 0.00 in /  0 mm
11:47 32.2 °F /  0.1 °C 17.4 °F /  -8.1 °C 30.56 in /  1034.8 hPa NNW 1.0 mph /  1.6 km/h 7.0 mph /  11.3 km/h 54 % 0.00 in /  0 mm
11:52 32.4 °F /  0.2 °C 17.1 °F /  -8.3 °C 30.56 in /  1034.8 hPa NNW 1.0 mph /  1.6 km/h 7.0 mph /  11.3 km/h 53 % 0.00 in /  0 mm
11:53 32.4 °F /  0.2 °C 17.1 °F /  -8.3 °C 30.56 in /  1034.8 hPa Calm   7.0 mph /  11.3 km/h 53 % 0.00 in /  0 mm
11:55 32.4 °F /  0.2 °C 16.7 °F /  -8.5 °C 30.56 in /  1034.8 hPa East 2.0 mph /  3.2 km/h 7.0 mph /  11.3 km/h 52 % 0.00 in /  0 mm
11:58 32.2 °F /  0.1 °C 16.5 °F /  -8.6 °C 30.56 in /  1034.8 hPa ENE 1.0 mph /  1.6 km/h 7.0 mph /  11.3 km/h 52 % 0.00 in /  0 mm
12:03 32.4 °F /  0.2 °C 17.1 °F /  -8.3 °C 30.55 in /  1034.4 hPa North 4.0 mph /  6.4 km/h 6.0 mph /  9.7 km/h 53 % 0.00 in /  0 mm
12:05 32.4 °F /  0.2 °C 17.1 °F /  -8.3 °C 30.55 in /  1034.4 hPa NNW 4.0 mph /  6.4 km/h 8.0 mph /  12.9 km/h 53 % 0.00 in /  0 mm
12:10 32.4 °F /  0.2 °C 17.1 °F /  -8.3 °C 30.54 in /  1034.1 hPa North 4.0 mph /  6.4 km/h 8.0 mph /  12.9 km/h 53 % 0.00 in /  0 mm
12:11 32.4 °F /  0.2 °C 17.1 °F /  -8.3 °C 30.55 in /  1034.4 hPa North 2.0 mph /  3.2 km/h 8.0 mph /  12.9 km/h 53 % 0.00 in /  0 mm
12:16 32.7 °F /  0.4 °C 18.0 °F /  -7.8 °C 30.54 in /  1034.1 hPa North 2.0 mph /  3.2 km/h 8.0 mph /  12.9 km/h 54 % 0.00 in /  0 mm
12:21 32.9 °F /  0.5 °C 17.6 °F /  -8 °C 30.54 in /  1034.1 hPa North 3.0 mph /  4.8 km/h 6.0 mph /  9.7 km/h 53 % 0.00 in /  0 mm
12:22 32.9 °F /  0.5 °C 17.6 °F /  -8 °C 30.54 in /  1034.1 hPa North 4.0 mph /  6.4 km/h 6.0 mph /  9.7 km/h 53 % 0.00 in /  0 mm
12:26 32.7 °F /  0.4 °C 18.0 °F /  -7.8 °C 30.54 in /  1034.1 hPa North 1.0 mph /  1.6 km/h 7.0 mph /  11.3 km/h 54 % 0.00 in /  0 mm
12:28 32.7 °F /  0.4 °C 18.0 °F /  -7.8 °C 30.53 in /  1033.7 hPa Calm   7.0 mph /  11.3 km/h 54 % 0.00 in /  0 mm
12:33 33.1 °F /  0.6 °C 18.3 °F /  -7.6 °C 30.53 in /  1033.7 hPa Calm   7.0 mph /  11.3 km/h 54 % 0.00 in /  0 mm
12:34 33.1 °F /  0.6 °C 18.3 °F /  -7.6 °C 30.53 in /  1033.7 hPa NW 1.0 mph /  1.6 km/h 7.0 mph /  11.3 km/h 54 % 0.00 in /  0 mm
12:39 32.9 °F /  0.5 °C 17.6 °F /  -8 °C 30.53 in /  1033.7 hPa NE 2.0 mph /  3.2 km/h 7.0 mph /  11.3 km/h 53 % 0.00 in /  0 mm
12:44 33.1 °F /  0.6 °C 17.8 °F /  -7.9 °C 30.52 in /  1033.4 hPa NNW 1.0 mph /  1.6 km/h 5.0 mph /  8 km/h 53 % 0.00 in /  0 mm
12:45 32.9 °F /  0.5 °C 17.6 °F /  -8 °C 30.52 in /  1033.4 hPa Calm   6.0 mph /  9.7 km/h 53 % 0.00 in /  0 mm
12:46 32.9 °F /  0.5 °C 17.6 °F /  -8 °C 30.52 in /  1033.4 hPa NNW 2.0 mph /  3.2 km/h 6.0 mph /  9.7 km/h 53 % 0.00 in /  0 mm
12:51 33.1 °F /  0.6 °C 17.8 °F /  -7.9 °C 30.52 in /  1033.4 hPa Calm   6.0 mph /  9.7 km/h 53 % 0.00 in /  0 mm
12:52 33.1 °F /  0.6 °C 18.3 °F /  -7.6 °C 30.52 in /  1033.4 hPa North 2.0 mph /  3.2 km/h 6.0 mph /  9.7 km/h 54 % 0.00 in /  0 mm
13:01 33.3 °F /  0.7 °C 18.0 °F /  -7.8 °C 30.52 in /  1033.4 hPa ENE 3.0 mph /  4.8 km/h 5.0 mph /  8 km/h 53 % 0.00 in /  0 mm
13:06 33.1 °F /  0.6 °C 17.4 °F /  -8.1 °C 30.51 in /  1033.1 hPa NW 2.0 mph /  3.2 km/h 5.0 mph /  8 km/h 52 % 0.00 in /  0 mm
13:07 33.1 °F /  0.6 °C 17.4 °F /  -8.1 °C 30.51 in /  1033.1 hPa North 3.0 mph /  4.8 km/h 5.0 mph /  8 km/h 52 % 0.00 in /  0 mm
13:12 32.7 °F /  0.4 °C 17.1 °F /  -8.3 °C 30.51 in /  1033.1 hPa Calm   5.0 mph /  8 km/h 52 % 0.00 in /  0 mm
13:17 32.9 °F /  0.5 °C 17.6 °F /  -8 °C 30.51 in /  1033.1 hPa ENE 1.0 mph /  1.6 km/h 5.0 mph /  8 km/h 53 % 0.00 in /  0 mm
13:18 32.9 °F /  0.5 °C 17.6 °F /  -8 °C 30.51 in /  1033.1 hPa NE 1.0 mph /  1.6 km/h 5.0 mph /  8 km/h 53 % 0.00 in /  0 mm
13:19 33.1 °F /  0.6 °C 17.8 °F /  -7.9 °C 30.51 in /  1033.1 hPa Calm   5.0 mph /  8 km/h 53 % 0.00 in /  0 mm
13:23 33.1 °F /  0.6 °C 17.4 °F /  -8.1 °C 30.50 in /  1032.7 hPa North 1.0 mph /  1.6 km/h 5.0 mph /  8 km/h 52 % 0.00 in /  0 mm
13:26 33.1 °F /  0.6 °C 17.4 °F /  -8.1 °C 30.51 in /  1033.1 hPa Calm   8.0 mph /  12.9 km/h 52 % 0.00 in /  0 mm
13:29 33.1 °F /  0.6 °C 18.3 °F /  -7.6 °C 30.50 in /  1032.7 hPa North 3.0 mph /  4.8 km/h 8.0 mph /  12.9 km/h 54 % 0.00 in /  0 mm
13:37 33.1 °F /  0.6 °C 17.8 °F /  -7.9 °C 30.50 in /  1032.7 hPa Calm   8.0 mph /  12.9 km/h 53 % 0.00 in /  0 mm
13:39 33.1 °F /  0.6 °C 17.8 °F /  -7.9 °C 30.50 in /  1032.7 hPa North 6.0 mph /  9.7 km/h 8.0 mph /  12.9 km/h 53 % 0.00 in /  0 mm
13:43 33.3 °F /  0.7 °C 17.6 °F /  -8 °C 30.50 in /  1032.7 hPa Calm   6.0 mph /  9.7 km/h 52 % 0.00 in /  0 mm
13:44 33.1 °F /  0.6 °C 17.4 °F /  -8.1 °C 30.50 in /  1032.7 hPa NW 1.0 mph /  1.6 km/h 6.0 mph /  9.7 km/h 52 % 0.00 in /  0 mm
13:49 33.3 °F /  0.7 °C 18.0 °F /  -7.8 °C 30.49 in /  1032.4 hPa NNW 1.0 mph /  1.6 km/h 6.0 mph /  9.7 km/h 53 % 0.00 in /  0 mm
13:52 33.4 °F /  0.8 °C 18.1 °F /  -7.7 °C 30.49 in /  1032.4 hPa NNE 3.0 mph /  4.8 km/h 6.0 mph /  9.7 km/h 53 % 0.00 in /  0 mm
13:58 33.6 °F /  0.9 °C 17.8 °F /  -7.9 °C 30.49 in /  1032.4 hPa NW 1.0 mph /  1.6 km/h 6.0 mph /  9.7 km/h 52 % 0.00 in /  0 mm
13:59 33.6 °F /  0.9 °C 17.8 °F /  -7.9 °C 30.48 in /  1032.1 hPa Calm   6.0 mph /  9.7 km/h 52 % 0.00 in /  0 mm
14:04 33.6 °F /  0.9 °C 17.8 °F /  -7.9 °C 30.48 in /  1032.1 hPa NW 2.0 mph /  3.2 km/h 4.0 mph /  6.4 km/h 52 % 0.00 in /  0 mm
14:05 33.6 °F /  0.9 °C 17.8 °F /  -7.9 °C 30.48 in /  1032.1 hPa Calm   5.0 mph /  8 km/h 52 % 0.00 in /  0 mm
14:07 33.6 °F /  0.9 °C 18.3 °F /  -7.6 °C 30.48 in /  1032.1 hPa NNE 2.0 mph /  3.2 km/h 5.0 mph /  8 km/h 53 % 0.00 in /  0 mm
14:12 33.6 °F /  0.9 °C 18.3 °F /  -7.6 °C 30.48 in /  1032.1 hPa Calm   5.0 mph /  8 km/h 53 % 0.00 in /  0 mm
14:13 33.8 °F /  1 °C 18.5 °F /  -7.5 °C 30.48 in /  1032.1 hPa North 1.0 mph /  1.6 km/h 5.0 mph /  8 km/h 53 % 0.00 in /  0 mm
14:17 33.8 °F /  1 °C 18.0 °F /  -7.8 °C 30.48 in /  1032.1 hPa North 1.0 mph /  1.6 km/h 5.0 mph /  8 km/h 52 % 0.00 in /  0 mm
14:18 33.8 °F /  1 °C 18.0 °F /  -7.8 °C 30.48 in /  1032.1 hPa NE 1.0 mph /  1.6 km/h 5.0 mph /  8 km/h 52 % 0.00 in /  0 mm
14:20 33.6 °F /  0.9 °C 17.8 °F /  -7.9 °C 30.48 in /  1032.1 hPa NNE 1.0 mph /  1.6 km/h 6.0 mph /  9.7 km/h 52 % 0.00 in /  0 mm
14:25 33.6 °F /  0.9 °C 17.8 °F /  -7.9 °C 30.47 in /  1031.7 hPa Calm   6.0 mph /  9.7 km/h 52 % 0.00 in /  0 mm
14:26 33.6 °F /  0.9 °C 17.8 °F /  -7.9 °C 30.47 in /  1031.7 hPa ENE 1.0 mph /  1.6 km/h 6.0 mph /  9.7 km/h 52 % 0.00 in /  0 mm
14:34 33.4 °F /  0.8 °C 17.8 °F /  -7.9 °C 30.47 in /  1031.7 hPa Calm   6.0 mph /  9.7 km/h 52 % 0.00 in /  0 mm
14:39 33.6 °F /  0.9 °C 17.4 °F /  -8.1 °C 30.47 in /  1031.7 hPa ENE 2.0 mph /  3.2 km/h 5.0 mph /  8 km/h 51 % 0.00 in /  0 mm
14:44 33.6 °F /  0.9 °C 17.8 °F /  -7.9 °C 30.46 in /  1031.4 hPa Calm   4.0 mph /  6.4 km/h 52 % 0.00 in /  0 mm
14:46 33.6 °F /  0.9 °C 17.4 °F /  -8.1 °C 30.46 in /  1031.4 hPa Calm   5.0 mph /  8 km/h 51 % 0.00 in /  0 mm
14:48 33.6 °F /  0.9 °C 17.4 °F /  -8.1 °C 30.46 in /  1031.4 hPa Calm   5.0 mph /  8 km/h 51 % 0.00 in /  0 mm
14:53 33.6 °F /  0.9 °C 17.4 °F /  -8.1 °C 30.46 in /  1031.4 hPa NW 2.0 mph /  3.2 km/h 5.0 mph /  8 km/h 51 % 0.00 in /  0 mm
14:58 33.6 °F /  0.9 °C 16.9 °F /  -8.4 °C 30.46 in /  1031.4 hPa Calm   5.0 mph /  8 km/h 50 % 0.00 in /  0 mm
14:59 33.6 °F /  0.9 °C 16.9 °F /  -8.4 °C 30.46 in /  1031.4 hPa North 2.0 mph /  3.2 km/h 5.0 mph /  8 km/h 50 % 0.00 in /  0 mm
15:04 33.6 °F /  0.9 °C 17.4 °F /  -8.1 °C 30.45 in /  1031 hPa North 3.0 mph /  4.8 km/h 5.0 mph /  8 km/h 51 % 0.00 in /  0 mm
15:06 33.6 °F /  0.9 °C 16.9 °F /  -8.4 °C 30.45 in /  1031 hPa NNW 2.0 mph /  3.2 km/h 5.0 mph /  8 km/h 50 % 0.00 in /  0 mm
15:08 33.6 °F /  0.9 °C 17.4 °F /  -8.1 °C 30.45 in /  1031 hPa NW 2.0 mph /  3.2 km/h 5.0 mph /  8 km/h 51 % 0.00 in /  0 mm
15:11 33.6 °F /  0.9 °C 17.4 °F /  -8.1 °C 30.45 in /  1031 hPa NW 2.0 mph /  3.2 km/h 5.0 mph /  8 km/h 51 % 0.00 in /  0 mm
15:15 33.6 °F /  0.9 °C 16.9 °F /  -8.4 °C 30.45 in /  1031 hPa NW 1.0 mph /  1.6 km/h 4.0 mph /  6.4 km/h 50 % 0.00 in /  0 mm
15:17 33.8 °F /  1 °C 17.1 °F /  -8.3 °C 30.45 in /  1031 hPa Calm   4.0 mph /  6.4 km/h 50 % 0.00 in /  0 mm
15:22 33.8 °F /  1 °C 17.6 °F /  -8 °C 30.45 in /  1031 hPa North 1.0 mph /  1.6 km/h 6.0 mph /  9.7 km/h 51 % 0.00 in /  0 mm
15:23 33.6 °F /  0.9 °C 17.4 °F /  -8.1 °C 30.45 in /  1031 hPa Calm   6.0 mph /  9.7 km/h 51 % 0.00 in /  0 mm
15:28 33.6 °F /  0.9 °C 17.4 °F /  -8.1 °C 30.44 in /  1030.7 hPa NNE 2.0 mph /  3.2 km/h 8.0 mph /  12.9 km/h 51 % 0.00 in /  0 mm
15:33 34.0 °F /  1.1 °C 18.1 °F /  -7.7 °C 30.45 in /  1031 hPa Calm   8.0 mph /  12.9 km/h 52 % 0.00 in /  0 mm
15:34 34.0 °F /  1.1 °C 18.1 °F /  -7.7 °C 30.45 in /  1031 hPa NNE 2.0 mph /  3.2 km/h 8.0 mph /  12.9 km/h 52 % 0.00 in /  0 mm
15:35 34.0 °F /  1.1 °C 18.1 °F /  -7.7 °C 30.45 in /  1031 hPa NE 1.0 mph /  1.6 km/h 8.0 mph /  12.9 km/h 52 % 0.00 in /  0 mm
15:40 34.0 °F /  1.1 °C 17.8 °F /  -7.9 °C 30.45 in /  1031 hPa ENE 2.0 mph /  3.2 km/h 5.0 mph /  8 km/h 51 % 0.00 in /  0 mm
15:41 34.0 °F /  1.1 °C 17.8 °F /  -7.9 °C 30.45 in /  1031 hPa Calm   5.0 mph /  8 km/h 51 % 0.00 in /  0 mm
15:48 34.0 °F /  1.1 °C 18.7 °F /  -7.4 °C 30.45 in /  1031 hPa WNW 1.0 mph /  1.6 km/h 5.0 mph /  8 km/h 53 % 0.00 in /  0 mm
15:53 34.2 °F /  1.2 °C 18.3 °F /  -7.6 °C 30.45 in /  1031 hPa Calm   3.0 mph /  4.8 km/h 52 % 0.00 in /  0 mm
15:54 34.2 °F /  1.2 °C 18.3 °F /  -7.6 °C 30.45 in /  1031 hPa Calm   3.0 mph /  4.8 km/h 52 % 0.00 in /  0 mm
15:55 34.2 °F /  1.2 °C 18.9 °F /  -7.3 °C 30.45 in /  1031 hPa Calm   3.0 mph /  4.8 km/h 53 % 0.00 in /  0 mm
16:00 34.2 °F /  1.2 °C 18.3 °F /  -7.6 °C 30.45 in /  1031 hPa North 3.0 mph /  4.8 km/h 7.0 mph /  11.3 km/h 52 % 0.00 in /  0 mm
16:02 34.0 °F /  1.1 °C 18.1 °F /  -7.7 °C 30.45 in /  1031 hPa NNW 3.0 mph /  4.8 km/h 7.0 mph /  11.3 km/h 52 % 0.00 in /  0 mm
16:08 34.0 °F /  1.1 °C 18.7 °F /  -7.4 °C 30.45 in /  1031 hPa NNW 2.0 mph /  3.2 km/h 7.0 mph /  11.3 km/h 53 % 0.00 in /  0 mm
16:10 34.0 °F /  1.1 °C 18.1 °F /  -7.7 °C 30.45 in /  1031 hPa NNW 2.0 mph /  3.2 km/h 7.0 mph /  11.3 km/h 52 % 0.00 in /  0 mm
16:16 34.0 °F /  1.1 °C 18.1 °F /  -7.7 °C 30.45 in /  1031 hPa NNE 3.0 mph /  4.8 km/h 5.0 mph /  8 km/h 52 % 0.00 in /  0 mm
16:20 34.0 °F /  1.1 °C 18.1 °F /  -7.7 °C 30.46 in /  1031.4 hPa NW 1.0 mph /  1.6 km/h 5.0 mph /  8 km/h 52 % 0.00 in /  0 mm
16:25 34.0 °F /  1.1 °C 18.1 °F /  -7.7 °C 30.46 in /  1031.4 hPa NNW 1.0 mph /  1.6 km/h 6.0 mph /  9.7 km/h 52 % 0.00 in /  0 mm
16:26 34.0 °F /  1.1 °C 18.1 °F /  -7.7 °C 30.46 in /  1031.4 hPa NNW 1.0 mph /  1.6 km/h 6.0 mph /  9.7 km/h 52 % 0.00 in /  0 mm
16:28 34.0 °F /  1.1 °C 18.1 °F /  -7.7 °C 30.46 in /  1031.4 hPa NW 3.0 mph /  4.8 km/h 6.0 mph /  9.7 km/h 52 % 0.00 in /  0 mm
16:32 34.0 °F /  1.1 °C 17.8 °F /  -7.9 °C 30.46 in /  1031.4 hPa NNW 3.0 mph /  4.8 km/h 6.0 mph /  9.7 km/h 51 % 0.00 in /  0 mm
16:37 34.0 °F /  1.1 °C 18.1 °F /  -7.7 °C 30.47 in /  1031.7 hPa Calm   6.0 mph /  9.7 km/h 52 % 0.00 in /  0 mm
16:38 34.0 °F /  1.1 °C 18.7 °F /  -7.4 °C 30.47 in /  1031.7 hPa NW 2.0 mph /  3.2 km/h 6.0 mph /  9.7 km/h 53 % 0.00 in /  0 mm
16:43 34.0 °F /  1.1 °C 18.7 °F /  -7.4 °C 30.46 in /  1031.4 hPa NW 1.0 mph /  1.6 km/h 5.0 mph /  8 km/h 53 % 0.00 in /  0 mm
16:48 34.0 °F /  1.1 °C 18.7 °F /  -7.4 °C 30.47 in /  1031.7 hPa NW 2.0 mph /  3.2 km/h 5.0 mph /  8 km/h 53 % 0.00 in /  0 mm
16:50 34.0 °F /  1.1 °C 18.7 °F /  -7.4 °C 30.47 in /  1031.7 hPa NNE 2.0 mph /  3.2 km/h 5.0 mph /  8 km/h 53 % 0.00 in /  0 mm
16:55 34.0 °F /  1.1 °C 18.1 °F /  -7.7 °C 30.47 in /  1031.7 hPa NW 2.0 mph /  3.2 km/h 8.0 mph /  12.9 km/h 52 % 0.00 in /  0 mm
16:57 33.8 °F /  1 °C 18.0 °F /  -7.8 °C 30.47 in /  1031.7 hPa NW 2.0 mph /  3.2 km/h 8.0 mph /  12.9 km/h 52 % 0.00 in /  0 mm
17:02 33.8 °F /  1 °C 18.0 °F /  -7.8 °C 30.47 in /  1031.7 hPa NW 2.0 mph /  3.2 km/h 8.0 mph /  12.9 km/h 52 % 0.00 in /  0 mm
17:04 33.8 °F /  1 °C 18.0 °F /  -7.8 °C 30.47 in /  1031.7 hPa NNE 2.0 mph /  3.2 km/h 8.0 mph /  12.9 km/h 52 % 0.00 in /  0 mm
17:09 33.8 °F /  1 °C 18.0 °F /  -7.8 °C 30.47 in /  1031.7 hPa NNW 1.0 mph /  1.6 km/h 8.0 mph /  12.9 km/h 52 % 0.00 in /  0 mm
17:10 34.0 °F /  1.1 °C 18.1 °F /  -7.7 °C 30.47 in /  1031.7 hPa NNW 2.0 mph /  3.2 km/h 5.0 mph /  8 km/h 52 % 0.00 in /  0 mm
17:15 34.0 °F /  1.1 °C 18.1 °F /  -7.7 °C 30.47 in /  1031.7 hPa NW 2.0 mph /  3.2 km/h 4.0 mph /  6.4 km/h 52 % 0.00 in /  0 mm
17:20 33.8 °F /  1 °C 18.5 °F /  -7.5 °C 30.47 in /  1031.7 hPa NW 2.0 mph /  3.2 km/h 6.0 mph /  9.7 km/h 53 % 0.00 in /  0 mm
17:25 33.6 °F /  0.9 °C 18.3 °F /  -7.6 °C 30.47 in /  1031.7 hPa North 2.0 mph /  3.2 km/h 6.0 mph /  9.7 km/h 53 % 0.00 in /  0 mm
17:30 33.6 °F /  0.9 °C 18.7 °F /  -7.4 °C 30.47 in /  1031.7 hPa NNW 1.0 mph /  1.6 km/h 6.0 mph /  9.7 km/h 54 % 0.00 in /  0 mm
17:31 33.6 °F /  0.9 °C 18.7 °F /  -7.4 °C 30.47 in /  1031.7 hPa Calm   6.0 mph /  9.7 km/h 54 % 0.00 in /  0 mm
17:33 33.6 °F /  0.9 °C 18.7 °F /  -7.4 °C 30.47 in /  1031.7 hPa NW 1.0 mph /  1.6 km/h 6.0 mph /  9.7 km/h 54 % 0.00 in /  0 mm
17:38 33.6 °F /  0.9 °C 18.7 °F /  -7.4 °C 30.47 in /  1031.7 hPa NW 1.0 mph /  1.6 km/h 5.0 mph /  8 km/h 54 % 0.00 in /  0 mm
17:39 33.6 °F /  0.9 °C 18.7 °F /  -7.4 °C 30.47 in /  1031.7 hPa NNW 4.0 mph /  6.4 km/h 5.0 mph /  8 km/h 54 % 0.00 in /  0 mm
17:41 33.6 °F /  0.9 °C 18.7 °F /  -7.4 °C 30.47 in /  1031.7 hPa NW 2.0 mph /  3.2 km/h 6.0 mph /  9.7 km/h 54 % 0.00 in /  0 mm
17:46 33.6 °F /  0.9 °C 18.7 °F /  -7.4 °C 30.46 in /  1031.4 hPa NW 1.0 mph /  1.6 km/h 6.0 mph /  9.7 km/h 54 % 0.00 in /  0 mm
17:52 33.6 °F /  0.9 °C 18.7 °F /  -7.4 °C 30.47 in /  1031.7 hPa NNW 1.0 mph /  1.6 km/h 6.0 mph /  9.7 km/h 54 % 0.00 in /  0 mm
17:57 33.6 °F /  0.9 °C 18.3 °F /  -7.6 °C 30.47 in /  1031.7 hPa WNW 2.0 mph /  3.2 km/h 5.0 mph /  8 km/h 53 % 0.00 in /  0 mm
18:02 33.4 °F /  0.8 °C 18.5 °F /  -7.5 °C 30.47 in /  1031.7 hPa NNW 3.0 mph /  4.8 km/h 6.0 mph /  9.7 km/h 54 % 0.00 in /  0 mm
18:03 33.4 °F /  0.8 °C 18.5 °F /  -7.5 °C 30.47 in /  1031.7 hPa NNW 2.0 mph /  3.2 km/h 6.0 mph /  9.7 km/h 54 % 0.00 in /  0 mm
18:07 33.4 °F /  0.8 °C 18.5 °F /  -7.5 °C 30.47 in /  1031.7 hPa NW 2.0 mph /  3.2 km/h 6.0 mph /  9.7 km/h 54 % 0.00 in /  0 mm
18:10 33.4 °F /  0.8 °C 18.1 °F /  -7.7 °C 30.47 in /  1031.7 hPa NW 2.0 mph /  3.2 km/h 6.0 mph /  9.7 km/h 53 % 0.00 in /  0 mm
18:15 33.4 °F /  0.8 °C 18.1 °F /  -7.7 °C 30.47 in /  1031.7 hPa NNW 2.0 mph /  3.2 km/h 5.0 mph /  8 km/h 53 % 0.00 in /  0 mm
18:18 33.4 °F /  0.8 °C 17.8 °F /  -7.9 °C 30.47 in /  1031.7 hPa WNW 2.0 mph /  3.2 km/h 5.0 mph /  8 km/h 52 % 0.00 in /  0 mm
18:19 33.4 °F /  0.8 °C 18.1 °F /  -7.7 °C 30.47 in /  1031.7 hPa NW 2.0 mph /  3.2 km/h 5.0 mph /  8 km/h 53 % 0.00 in /  0 mm
18:24 33.4 °F /  0.8 °C 18.1 °F /  -7.7 °C 30.47 in /  1031.7 hPa NNW 4.0 mph /  6.4 km/h 7.0 mph /  11.3 km/h 53 % 0.00 in /  0 mm
18:25 33.4 °F /  0.8 °C 18.1 °F /  -7.7 °C 30.47 in /  1031.7 hPa WSW 1.0 mph /  1.6 km/h 7.0 mph /  11.3 km/h 53 % 0.00 in /  0 mm
18:30 33.4 °F /  0.8 °C 18.1 °F /  -7.7 °C 30.47 in /  1031.7 hPa NW 1.0 mph /  1.6 km/h 7.0 mph /  11.3 km/h 53 % 0.00 in /  0 mm
18:31 33.4 °F /  0.8 °C 18.5 °F /  -7.5 °C 30.47 in /  1031.7 hPa NW 1.0 mph /  1.6 km/h 7.0 mph /  11.3 km/h 54 % 0.00 in /  0 mm
18:36 33.4 °F /  0.8 °C 18.1 °F /  -7.7 °C 30.48 in /  1032.1 hPa Calm   6.0 mph /  9.7 km/h 53 % 0.00 in /  0 mm
18:41 33.3 °F /  0.7 °C 18.0 °F /  -7.8 °C 30.48 in /  1032.1 hPa North 5.0 mph /  8 km/h 8.0 mph /  12.9 km/h 53 % 0.00 in /  0 mm
18:46 33.3 °F /  0.7 °C 18.5 °F /  -7.5 °C 30.48 in /  1032.1 hPa NNW 3.0 mph /  4.8 km/h 8.0 mph /  12.9 km/h 54 % 0.00 in /  0 mm
18:54 33.3 °F /  0.7 °C 18.5 °F /  -7.5 °C 30.48 in /  1032.1 hPa North 5.0 mph /  8 km/h 8.0 mph /  12.9 km/h 54 % 0.00 in /  0 mm
18:59 32.9 °F /  0.5 °C 17.6 °F /  -8 °C 30.48 in /  1032.1 hPa WNW 5.0 mph /  8 km/h 8.0 mph /  12.9 km/h 53 % 0.00 in /  0 mm
19:00 32.9 °F /  0.5 °C 17.6 °F /  -8 °C 30.48 in /  1032.1 hPa NNW 3.0 mph /  4.8 km/h 8.0 mph /  12.9 km/h 53 % 0.00 in /  0 mm
19:05 32.7 °F /  0.4 °C 17.4 °F /  -8.1 °C 30.48 in /  1032.1 hPa NW 3.0 mph /  4.8 km/h 8.0 mph /  12.9 km/h 53 % 0.00 in /  0 mm
19:08 32.7 °F /  0.4 °C 18.0 °F /  -7.8 °C 30.48 in /  1032.1 hPa West 3.0 mph /  4.8 km/h 9.0 mph /  14.5 km/h 54 % 0.00 in /  0 mm
19:13 32.7 °F /  0.4 °C 18.0 °F /  -7.8 °C 30.48 in /  1032.1 hPa NW 4.0 mph /  6.4 km/h 9.0 mph /  14.5 km/h 54 % 0.00 in /  0 mm
19:14 32.5 °F /  0.3 °C 17.2 °F /  -8.2 °C 30.48 in /  1032.1 hPa NW 4.0 mph /  6.4 km/h 9.0 mph /  14.5 km/h 53 % 0.00 in /  0 mm
19:19 32.5 °F /  0.3 °C 17.2 °F /  -8.2 °C 30.48 in /  1032.1 hPa NW 1.0 mph /  1.6 km/h 9.0 mph /  14.5 km/h 53 % 0.00 in /  0 mm
19:20 32.5 °F /  0.3 °C 17.2 °F /  -8.2 °C 30.48 in /  1032.1 hPa NNW 1.0 mph /  1.6 km/h 9.0 mph /  14.5 km/h 53 % 0.00 in /  0 mm
19:25 32.5 °F /  0.3 °C 17.2 °F /  -8.2 °C 30.48 in /  1032.1 hPa NW 3.0 mph /  4.8 km/h 6.0 mph /  9.7 km/h 53 % 0.00 in /  0 mm
19:26 32.5 °F /  0.3 °C 17.2 °F /  -8.2 °C 30.48 in /  1032.1 hPa NW 6.0 mph /  9.7 km/h 6.0 mph /  9.7 km/h 53 % 0.00 in /  0 mm
19:27 32.5 °F /  0.3 °C 17.2 °F /  -8.2 °C 30.48 in /  1032.1 hPa NNW 2.0 mph /  3.2 km/h 6.0 mph /  9.7 km/h 53 % 0.00 in /  0 mm
19:32 32.5 °F /  0.3 °C 17.2 °F /  -8.2 °C 30.48 in /  1032.1 hPa NW 5.0 mph /  8 km/h 6.0 mph /  9.7 km/h 53 % 0.00 in /  0 mm
19:37 32.5 °F /  0.3 °C 17.2 °F /  -8.2 °C 30.48 in /  1032.1 hPa NW 1.0 mph /  1.6 km/h 7.0 mph /  11.3 km/h 53 % 0.00 in /  0 mm
19:38 32.5 °F /  0.3 °C 17.2 °F /  -8.2 °C 30.48 in /  1032.1 hPa NW 1.0 mph /  1.6 km/h 7.0 mph /  11.3 km/h 53 % 0.00 in /  0 mm
19:39 32.5 °F /  0.3 °C 17.2 °F /  -8.2 °C 30.49 in /  1032.4 hPa NW 2.0 mph /  3.2 km/h 7.0 mph /  11.3 km/h 53 % 0.00 in /  0 mm
19:44 32.5 °F /  0.3 °C 17.2 °F /  -8.2 °C 30.48 in /  1032.1 hPa NNW 5.0 mph /  8 km/h 7.0 mph /  11.3 km/h 53 % 0.00 in /  0 mm
19:45 32.5 °F /  0.3 °C 17.2 °F /  -8.2 °C 30.48 in /  1032.1 hPa NW 3.0 mph /  4.8 km/h 8.0 mph /  12.9 km/h 53 % 0.00 in /  0 mm
19:50 32.5 °F /  0.3 °C 17.2 °F /  -8.2 °C 30.49 in /  1032.4 hPa NNW 1.0 mph /  1.6 km/h 8.0 mph /  12.9 km/h 53 % 0.00 in /  0 mm
19:51 32.5 °F /  0.3 °C 17.2 °F /  -8.2 °C 30.49 in /  1032.4 hPa NW 5.0 mph /  8 km/h 8.0 mph /  12.9 km/h 53 % 0.00 in /  0 mm
19:54 32.4 °F /  0.2 °C 17.1 °F /  -8.3 °C 30.49 in /  1032.4 hPa NW 5.0 mph /  8 km/h 8.0 mph /  12.9 km/h 53 % 0.00 in /  0 mm
19:57 32.4 °F /  0.2 °C 17.1 °F /  -8.3 °C 30.49 in /  1032.4 hPa NNW 4.0 mph /  6.4 km/h 8.0 mph /  12.9 km/h 53 % 0.00 in /  0 mm
20:02 32.4 °F /  0.2 °C 17.1 °F /  -8.3 °C 30.49 in /  1032.4 hPa NW 8.0 mph /  12.9 km/h 10.0 mph /  16.1 km/h 53 % 0.00 in /  0 mm
20:03 32.4 °F /  0.2 °C 17.1 °F /  -8.3 °C 30.49 in /  1032.4 hPa North 8.0 mph /  12.9 km/h 10.0 mph /  16.1 km/h 53 % 0.00 in /  0 mm
20:05 32.2 °F /  0.1 °C 17.1 °F /  -8.3 °C 30.49 in /  1032.4 hPa NNW 3.0 mph /  4.8 km/h 10.0 mph /  16.1 km/h 53 % 0.00 in /  0 mm
20:10 32.2 °F /  0.1 °C 17.4 °F /  -8.1 °C 30.49 in /  1032.4 hPa NNW 3.0 mph /  4.8 km/h 10.0 mph /  16.1 km/h 54 % 0.00 in /  0 mm
20:13 32.2 °F /  0.1 °C 17.4 °F /  -8.1 °C 30.49 in /  1032.4 hPa NNW 4.0 mph /  6.4 km/h 10.0 mph /  16.1 km/h 54 % 0.00 in /  0 mm
20:18 32.0 °F /  0 °C 17.6 °F /  -8 °C 30.49 in /  1032.4 hPa NNE 4.0 mph /  6.4 km/h 10.0 mph /  16.1 km/h 55 % 0.00 in /  0 mm
20:20 32.0 °F /  0 °C 17.6 °F /  -8 °C 30.49 in /  1032.4 hPa NNW 5.0 mph /  8 km/h 10.0 mph /  16.1 km/h 55 % 0.00 in /  0 mm
20:21 31.8 °F /  -0.1 °C 17.4 °F /  -8.1 °C 30.50 in /  1032.7 hPa NNW 1.0 mph /  1.6 km/h 10.0 mph /  16.1 km/h 55 % 0.00 in /  0 mm
20:25 31.8 °F /  -0.1 °C 18.0 °F /  -7.8 °C 30.50 in /  1032.7 hPa WNW 5.0 mph /  8 km/h 10.0 mph /  16.1 km/h 56 % 0.00 in /  0 mm
20:28 31.6 °F /  -0.2 °C 17.2 °F /  -8.2 °C 30.50 in /  1032.7 hPa WNW 7.0 mph /  11.3 km/h 10.0 mph /  16.1 km/h 55 % 0.00 in /  0 mm
20:31 31.6 °F /  -0.2 °C 17.2 °F /  -8.2 °C 30.50 in /  1032.7 hPa NW 7.0 mph /  11.3 km/h 10.0 mph /  16.1 km/h 55 % 0.00 in /  0 mm
20:36 31.5 °F /  -0.3 °C 17.2 °F /  -8.2 °C 30.50 in /  1032.7 hPa NNW 1.0 mph /  1.6 km/h 11.0 mph /  17.7 km/h 55 % 0.00 in /  0 mm
20:41 31.5 °F /  -0.3 °C 17.2 °F /  -8.2 °C 30.50 in /  1032.7 hPa NNW 3.0 mph /  4.8 km/h 11.0 mph /  17.7 km/h 55 % 0.00 in /  0 mm
20:46 31.5 °F /  -0.3 °C 17.2 °F /  -8.2 °C 30.50 in /  1032.7 hPa NW 3.0 mph /  4.8 km/h 11.0 mph /  17.7 km/h 55 % 0.00 in /  0 mm
20:48 31.5 °F /  -0.3 °C 17.2 °F /  -8.2 °C 30.51 in /  1033.1 hPa NNE 6.0 mph /  9.7 km/h 11.0 mph /  17.7 km/h 55 % 0.00 in /  0 mm
20:53 31.3 °F /  -0.4 °C 17.1 °F /  -8.3 °C 30.50 in /  1032.7 hPa NW 3.0 mph /  4.8 km/h 11.0 mph /  17.7 km/h 55 % 0.00 in /  0 mm
20:55 31.3 °F /  -0.4 °C 17.1 °F /  -8.3 °C 30.50 in /  1032.7 hPa NNW 3.0 mph /  4.8 km/h 10.0 mph /  16.1 km/h 55 % 0.00 in /  0 mm
21:00 31.3 °F /  -0.4 °C 17.1 °F /  -8.3 °C 30.51 in /  1033.1 hPa NW 5.0 mph /  8 km/h 11.0 mph /  17.7 km/h 55 % 0.00 in /  0 mm
21:05 31.1 °F /  -0.5 °C 17.2 °F /  -8.2 °C 30.51 in /  1033.1 hPa West 1.0 mph /  1.6 km/h 11.0 mph /  17.7 km/h 56 % 0.00 in /  0 mm
21:07 31.1 °F /  -0.5 °C 17.2 °F /  -8.2 °C 30.51 in /  1033.1 hPa North 6.0 mph /  9.7 km/h 11.0 mph /  17.7 km/h 56 % 0.00 in /  0 mm
21:13 31.1 °F /  -0.5 °C 17.2 °F /  -8.2 °C 30.51 in /  1033.1 hPa NNW 2.0 mph /  3.2 km/h 11.0 mph /  17.7 km/h 56 % 0.00 in /  0 mm
21:15 31.1 °F /  -0.5 °C 17.6 °F /  -8 °C 30.51 in /  1033.1 hPa NNW 3.0 mph /  4.8 km/h 10.0 mph /  16.1 km/h 57 % 0.00 in /  0 mm
21:20 30.9 °F /  -0.6 °C 17.4 °F /  -8.1 °C 30.51 in /  1033.1 hPa NNW 4.0 mph /  6.4 km/h 12.0 mph /  19.3 km/h 57 % 0.00 in /  0 mm
21:24 30.7 °F /  -0.7 °C 17.8 °F /  -7.9 °C 30.51 in /  1033.1 hPa NNW 2.0 mph /  3.2 km/h 12.0 mph /  19.3 km/h 58 % 0.00 in /  0 mm
21:29 30.6 °F /  -0.8 °C 18.0 °F /  -7.8 °C 30.51 in /  1033.1 hPa NW 5.0 mph /  8 km/h 12.0 mph /  19.3 km/h 59 % 0.00 in /  0 mm
21:39 30.4 °F /  -0.9 °C 18.9 °F /  -7.3 °C 30.51 in /  1033.1 hPa NNW 6.0 mph /  9.7 km/h 10.0 mph /  16.1 km/h 62 % 0.00 in /  0 mm
21:44 30.2 °F /  -1 °C 19.6 °F /  -6.9 °C 30.51 in /  1033.1 hPa North 6.0 mph /  9.7 km/h 10.0 mph /  16.1 km/h 64 % 0.00 in /  0 mm
21:45 30.2 °F /  -1 °C 19.6 °F /  -6.9 °C 30.51 in /  1033.1 hPa NW 5.0 mph /  8 km/h 10.0 mph /  16.1 km/h 64 % 0.00 in /  0 mm
21:47 30.0 °F /  -1.1 °C 19.4 °F /  -7 °C 30.51 in /  1033.1 hPa North 5.0 mph /  8 km/h 11.0 mph /  17.7 km/h 64 % 0.00 in /  0 mm
21:49 30.0 °F /  -1.1 °C 19.8 °F /  -6.8 °C 30.51 in /  1033.1 hPa NNW 2.0 mph /  3.2 km/h 11.0 mph /  17.7 km/h 65 % 0.00 in /  0 mm
21:54 29.8 °F /  -1.2 °C 19.9 °F /  -6.7 °C 30.51 in /  1033.1 hPa North 7.0 mph /  11.3 km/h 11.0 mph /  17.7 km/h 66 % 0.00 in /  0 mm
21:57 29.7 °F /  -1.3 °C 20.1 °F /  -6.6 °C 30.51 in /  1033.1 hPa NW 4.0 mph /  6.4 km/h 11.0 mph /  17.7 km/h 67 % 0.00 in /  0 mm
21:58 29.7 °F /  -1.3 °C 20.1 °F /  -6.6 °C 30.51 in /  1033.1 hPa NNW 6.0 mph /  9.7 km/h 11.0 mph /  17.7 km/h 67 % 0.00 in /  0 mm
22:06 29.3 °F /  -1.5 °C 21.0 °F /  -6.1 °C 30.51 in /  1033.1 hPa NW 4.0 mph /  6.4 km/h 12.0 mph /  19.3 km/h 71 % 0.00 in /  0 mm
22:11 29.1 °F /  -1.6 °C 21.2 °F /  -6 °C 30.51 in /  1033.1 hPa NNW 4.0 mph /  6.4 km/h 12.0 mph /  19.3 km/h 72 % 0.00 in /  0 mm
22:12 29.1 °F /  -1.6 °C 21.2 °F /  -6 °C 30.51 in /  1033.1 hPa NW 6.0 mph /  9.7 km/h 12.0 mph /  19.3 km/h 72 % 0.00 in /  0 mm
22:13 29.1 °F /  -1.6 °C 21.2 °F /  -6 °C 30.51 in /  1033.1 hPa NW 4.0 mph /  6.4 km/h 12.0 mph /  19.3 km/h 72 % 0.00 in /  0 mm
22:17 28.9 °F /  -1.7 °C 21.4 °F /  -5.9 °C 30.51 in /  1033.1 hPa NW 3.0 mph /  4.8 km/h 11.0 mph /  17.7 km/h 73 % 0.00 in /  0 mm
22:22 28.9 °F /  -1.7 °C 21.7 °F /  -5.7 °C 30.51 in /  1033.1 hPa NW 2.0 mph /  3.2 km/h 10.0 mph /  16.1 km/h 74 % 0.00 in /  0 mm
22:23 28.9 °F /  -1.7 °C 21.7 °F /  -5.7 °C 30.51 in /  1033.1 hPa NNW 2.0 mph /  3.2 km/h 10.0 mph /  16.1 km/h 74 % 0.00 in /  0 mm
22:30 28.9 °F /  -1.7 °C 21.7 °F /  -5.7 °C 30.51 in /  1033.1 hPa NNW 5.0 mph /  8 km/h 10.0 mph /  16.1 km/h 74 % 0.00 in /  0 mm
22:32 28.9 °F /  -1.7 °C 21.7 °F /  -5.7 °C 30.51 in /  1033.1 hPa NW 8.0 mph /  12.9 km/h 10.0 mph /  16.1 km/h 74 % 0.00 in /  0 mm
22:37 28.8 °F /  -1.8 °C 21.6 °F /  -5.8 °C 30.51 in /  1033.1 hPa NNW 2.0 mph /  3.2 km/h 9.0 mph /  14.5 km/h 74 % 0.00 in /  0 mm
22:40 28.8 °F /  -1.8 °C 21.9 °F /  -5.6 °C 30.51 in /  1033.1 hPa NW 3.0 mph /  4.8 km/h 9.0 mph /  14.5 km/h 75 % 0.00 in /  0 mm
22:45 28.8 °F /  -1.8 °C 21.6 °F /  -5.8 °C 30.51 in /  1033.1 hPa NW 4.0 mph /  6.4 km/h 9.0 mph /  14.5 km/h 74 % 0.00 in /  0 mm
22:48 28.8 °F /  -1.8 °C 21.6 °F /  -5.8 °C 30.51 in /  1033.1 hPa NW 3.0 mph /  4.8 km/h 9.0 mph /  14.5 km/h 74 % 0.00 in /  0 mm
22:52 28.8 °F /  -1.8 °C 21.6 °F /  -5.8 °C 30.51 in /  1033.1 hPa North 3.0 mph /  4.8 km/h 8.0 mph /  12.9 km/h 74 % 0.00 in /  0 mm
22:56 28.8 °F /  -1.8 °C 21.6 °F /  -5.8 °C 30.51 in /  1033.1 hPa NW 5.0 mph /  8 km/h 8.0 mph /  12.9 km/h 74 % 0.00 in /  0 mm
23:01 28.6 °F /  -1.9 °C 21.0 °F /  -6.1 °C 30.51 in /  1033.1 hPa NNW 3.0 mph /  4.8 km/h 13.0 mph /  20.9 km/h 73 % 0.00 in /  0 mm
23:08 28.8 °F /  -1.8 °C 21.2 °F /  -6 °C 30.50 in /  1032.7 hPa NW 7.0 mph /  11.3 km/h 13.0 mph /  20.9 km/h 73 % 0.00 in /  0 mm
23:13 28.8 °F /  -1.8 °C 21.2 °F /  -6 °C 30.51 in /  1033.1 hPa NNW 4.0 mph /  6.4 km/h 13.0 mph /  20.9 km/h 73 % 0.00 in /  0 mm
23:14 28.6 °F /  -1.9 °C 21.0 °F /  -6.1 °C 30.51 in /  1033.1 hPa NNW 2.0 mph /  3.2 km/h 13.0 mph /  20.9 km/h 73 % 0.00 in /  0 mm
23:15 28.6 °F /  -1.9 °C 21.0 °F /  -6.1 °C 30.51 in /  1033.1 hPa North 5.0 mph /  8 km/h 8.0 mph /  12.9 km/h 73 % 0.00 in /  0 mm
23:20 28.8 °F /  -1.8 °C 21.2 °F /  -6 °C 30.51 in /  1033.1 hPa NNW 2.0 mph /  3.2 km/h 8.0 mph /  12.9 km/h 73 % 0.00 in /  0 mm
23:22 28.8 °F /  -1.8 °C 21.2 °F /  -6 °C 30.51 in /  1033.1 hPa NNW 2.0 mph /  3.2 km/h 8.0 mph /  12.9 km/h 73 % 0.00 in /  0 mm
23:23 28.8 °F /  -1.8 °C 21.2 °F /  -6 °C 30.51 in /  1033.1 hPa NNE 5.0 mph /  8 km/h 8.0 mph /  12.9 km/h 73 % 0.00 in /  0 mm
23:31 28.8 °F /  -1.8 °C 20.8 °F /  -6.2 °C 30.51 in /  1033.1 hPa NW 4.0 mph /  6.4 km/h 11.0 mph /  17.7 km/h 72 % 0.00 in /  0 mm
23:36 28.8 °F /  -1.8 °C 21.2 °F /  -6 °C 30.50 in /  1032.7 hPa NNW 2.0 mph /  3.2 km/h 11.0 mph /  17.7 km/h 73 % 0.00 in /  0 mm
23:42 28.8 °F /  -1.8 °C 20.5 °F /  -6.4 °C 30.50 in /  1032.7 hPa NNW 3.0 mph /  4.8 km/h 7.0 mph /  11.3 km/h 71 % 0.00 in /  0 mm
23:43 28.8 °F /  -1.8 °C 20.5 °F /  -6.4 °C 30.50 in /  1032.7 hPa NNW 3.0 mph /  4.8 km/h 7.0 mph /  11.3 km/h 71 % 0.00 in /  0 mm
23:48 28.9 °F /  -1.7 °C 20.5 °F /  -6.4 °C 30.50 in /  1032.7 hPa NW 5.0 mph /  8 km/h 7.0 mph /  11.3 km/h 70 % 0.00 in /  0 mm
23:52 28.9 °F /  -1.7 °C 20.5 °F /  -6.4 °C 30.50 in /  1032.7 hPa WSW 4.0 mph /  6.4 km/h 7.0 mph /  11.3 km/h 70 % 0.00 in /  0 mm
23:54 28.9 °F /  -1.7 °C 20.1 °F /  -6.6 °C 30.50 in /  1032.7 hPa NE 3.0 mph /  4.8 km/h 7.0 mph /  11.3 km/h 69 % 0.00 in /  0 mm
23:58 28.9 °F /  -1.7 °C 19.8 °F /  -6.8 °C 30.50 in /  1032.7 hPa NNE 2.0 mph /  3.2 km/h 9.0 mph /  14.5 km/h 68 % 0.00 in /  0 mm
Spring, Texas: Villages of Bridgestone
Compliments of Weather Underground - 3.5 mb

Script developed by  Jim McMurry - jmcmurry@mwt.net Adapted for the template by  Wim van der Kuil - Leuven-Template.eu

You find our weather info also at:

UK Metoffice

WeatherCloud

Weather Underground

Mid-South Weather Network

AWEKAS

Citizen Weather Observer Program (CWOP)

HAMweather, WeatherForYou, PWS Weather

Equipment we use:

Weather-station
Davis Vantage Vue

Weather-program
Meteohub

Weather-server
Debian 7.9 x86 (Guest)

Provider
DreamHost

Davis Vantage Vue

Meteohub

Debian 7.9 x86 (Guest)

DreamHost